createdAt,value
2018-09-23T00:00:19.241Z,1003.34
2018-09-23T00:01:29.102Z,1003.41
2018-09-23T00:02:39.183Z,1003.42
2018-09-23T00:03:49.332Z,1003.37
2018-09-23T00:04:59.407Z,1003.38
2018-09-23T00:06:09.495Z,1003.32
2018-09-23T00:07:19.569Z,1003.24
2018-09-23T00:08:29.377Z,1003.26
2018-09-23T00:09:39.502Z,1003.38
2018-09-23T00:10:49.076Z,1003.36
2018-09-23T00:11:58.876Z,1003.34
2018-09-23T00:13:08.957Z,1003.28
2018-09-23T00:14:18.770Z,1003.28
2018-09-23T00:15:28.849Z,1003.26
2018-09-23T00:16:38.408Z,1003.26
2018-09-23T00:17:48.481Z,1003.17
2018-09-23T00:18:58.589Z,1003.17
2018-09-23T00:20:08.698Z,1003.16
2018-09-23T00:21:18.779Z,1003.18
2018-09-23T00:22:28.599Z,1003.2
2018-09-23T00:23:38.667Z,1003.14
2018-09-23T00:24:48.801Z,1003.15
2018-09-23T00:25:58.870Z,1003.15
2018-09-23T00:27:09.000Z,1003.09
2018-09-23T00:28:19.091Z,1003.13
2018-09-23T00:29:29.193Z,1003.1
2018-09-23T00:30:39.019Z,1003.1
2018-09-23T00:31:49.103Z,1003.1
2018-09-23T00:32:59.167Z,1003.02
2018-09-23T00:34:08.996Z,1003.02
2018-09-23T00:35:19.103Z,1003.05
2018-09-23T00:36:29.185Z,1003
2018-09-23T00:37:39.271Z,1003.04
2018-09-23T00:38:49.088Z,1002.93
2018-09-23T00:39:59.172Z,1002.89
2018-09-23T00:41:10.009Z,1002.85
2018-09-23T00:42:20.089Z,1002.83
2018-09-23T00:43:30.169Z,1002.82
2018-09-23T00:44:40.266Z,1002.8
2018-09-23T00:45:50.337Z,1002.78
2018-09-23T00:47:02.424Z,1002.82
2018-09-23T00:48:12.494Z,1002.81
2018-09-23T00:49:22.632Z,1002.79
2018-09-23T00:50:32.448Z,1002.8
2018-09-23T00:51:42.247Z,1002.77
2018-09-23T00:52:52.332Z,1002.75
2018-09-23T00:54:02.147Z,1002.76
2018-09-23T00:55:11.971Z,1002.75
2018-09-23T00:56:21.794Z,1002.74
2018-09-23T00:57:31.871Z,1002.69
2018-09-23T00:58:41.687Z,1002.68
2018-09-23T00:59:51.774Z,1002.68
2018-09-23T01:01:01.908Z,1002.69
2018-09-23T01:02:11.980Z,1002.72
2018-09-23T01:03:21.799Z,1002.71
2018-09-23T01:04:31.869Z,1002.7
2018-09-23T01:05:41.441Z,1002.8
2018-09-23T01:06:51.515Z,1002.77
2018-09-23T01:08:01.327Z,1002.75
2018-09-23T01:09:11.414Z,1002.69
2018-09-23T01:10:21.509Z,1002.64
2018-09-23T01:11:31.600Z,1002.68
2018-09-23T01:12:41.717Z,1002.69
2018-09-23T01:13:51.547Z,1002.64
2018-09-23T01:15:01.640Z,1002.65
2018-09-23T01:16:11.732Z,1002.68
2018-09-23T01:17:21.838Z,1002.68
2018-09-23T01:18:31.724Z,1002.65
2018-09-23T01:19:41.537Z,1002.65
2018-09-23T01:20:51.623Z,1002.62
2018-09-23T01:22:01.700Z,1002.62
2018-09-23T01:23:11.522Z,1002.6
2018-09-23T01:24:21.323Z,1002.57
2018-09-23T01:25:31.400Z,1002.61
2018-09-23T01:26:41.228Z,1002.62
2018-09-23T01:27:51.053Z,1002.64
2018-09-23T01:29:01.794Z,1002.62
2018-09-23T01:30:11.871Z,1002.61
2018-09-23T01:31:21.694Z,1002.56
2018-09-23T01:32:31.746Z,1002.57
2018-09-23T01:33:41.813Z,1002.53
2018-09-23T01:34:51.350Z,1002.53
2018-09-23T01:36:01.474Z,1002.55
2018-09-23T01:37:11.299Z,1002.5
2018-09-23T01:38:21.363Z,1002.47
2018-09-23T01:39:31.461Z,1002.48
2018-09-23T01:40:41.523Z,1002.49
2018-09-23T01:41:51.744Z,1002.48
2018-09-23T01:43:01.560Z,1002.52
2018-09-23T01:44:11.695Z,1002.48
2018-09-23T01:45:21.769Z,1002.52
2018-09-23T01:46:31.850Z,1002.55
2018-09-23T01:47:41.983Z,1002.54
2018-09-23T01:48:52.060Z,1002.56
2018-09-23T01:50:03.850Z,1002.6
2018-09-23T01:51:14.177Z,1002.55
2018-09-23T01:52:24.239Z,1002.56
2018-09-23T01:53:34.045Z,1002.52
2018-09-23T01:54:44.128Z,1002.56
2018-09-23T01:55:54.012Z,1002.57
2018-09-23T01:57:04.468Z,1002.61
2018-09-23T01:58:14.523Z,1002.6
2018-09-23T01:59:24.626Z,1002.65
2018-09-23T02:00:34.722Z,1002.67
2018-09-23T02:01:44.930Z,1002.67
2018-09-23T02:02:55.014Z,1002.72
2018-09-23T02:04:04.823Z,1002.76
2018-09-23T02:05:14.913Z,1002.75
2018-09-23T02:06:24.991Z,1002.69
2018-09-23T02:07:35.113Z,1002.65
2018-09-23T02:08:45.189Z,1002.62
2018-09-23T02:09:55.286Z,1002.62
2018-09-23T02:11:06.287Z,1002.6
2018-09-23T02:12:16.380Z,1002.66
2018-09-23T02:13:26.214Z,1002.68
2018-09-23T02:14:36.047Z,1002.68
2018-09-23T02:15:45.869Z,1002.66
2018-09-23T02:16:55.703Z,1002.67
2018-09-23T02:18:06.424Z,1002.63
2018-09-23T02:19:15.980Z,1002.62
2018-09-23T02:20:26.042Z,1002.62
2018-09-23T02:21:36.130Z,1002.63
2018-09-23T02:22:46.256Z,1002.61
2018-09-23T02:23:56.350Z,1002.62
2018-09-23T02:25:06.424Z,1002.59
2018-09-23T02:26:16.245Z,1002.58
2018-09-23T02:27:26.325Z,1002.55
2018-09-23T02:28:36.407Z,1002.54
2018-09-23T02:29:46.485Z,1002.56
2018-09-23T02:30:56.673Z,1002.57
2018-09-23T02:32:08.423Z,1002.48
2018-09-23T02:33:18.238Z,1002.45
2018-09-23T02:34:28.068Z,1002.42
2018-09-23T02:35:38.147Z,1002.4
2018-09-23T02:36:48.301Z,1002.41
2018-09-23T02:37:58.382Z,1002.41
2018-09-23T02:39:08.465Z,1002.39
2018-09-23T02:40:18.551Z,1002.41
2018-09-23T02:41:28.645Z,1002.36
2018-09-23T02:42:38.453Z,1002.31
2018-09-23T02:43:48.531Z,1002.29
2018-09-23T02:44:58.617Z,1002.29
2018-09-23T02:46:09.620Z,1002.29
2018-09-23T02:47:19.694Z,1002.29
2018-09-23T02:48:29.769Z,1002.27
2018-09-23T02:49:39.858Z,1002.24
2018-09-23T02:50:49.942Z,1002.27
2018-09-23T02:52:00.018Z,1002.22
2018-09-23T02:53:10.098Z,1002.19
2018-09-23T02:54:20.209Z,1002.18
2018-09-23T02:55:30.270Z,1002.2
2018-09-23T02:56:40.098Z,1002.15
2018-09-23T02:57:50.159Z,1002.14
2018-09-23T02:58:59.714Z,1002.16
2018-09-23T03:00:10.096Z,1002.12
2018-09-23T03:01:20.163Z,1002.11
2018-09-23T03:02:30.239Z,1002.13
2018-09-23T03:34:38.576Z,1002.13
2018-09-23T03:35:48.642Z,1002.15
2018-09-23T03:36:58.744Z,1002.13
2018-09-23T03:38:08.557Z,1002.18
2018-09-23T03:39:18.637Z,1002.16
2018-09-23T03:40:28.716Z,1002.12
2018-09-23T03:41:38.782Z,1002.11
2018-09-23T03:42:48.840Z,1002.07
2018-09-23T03:43:58.899Z,1002.02
2018-09-23T03:45:08.954Z,1001.98
2018-09-23T03:46:19.035Z,1001.95
2018-09-23T03:47:29.119Z,1001.87
2018-09-23T03:48:39.192Z,1001.86
2018-09-23T03:49:49.032Z,1001.93
2018-09-23T03:50:59.121Z,1001.96
2018-09-23T03:52:09.202Z,1002
2018-09-23T03:53:19.283Z,1002.09
2018-09-23T03:54:29.355Z,1002.12
2018-09-23T03:55:39.158Z,1002.17
2018-09-23T03:56:49.236Z,1002.17
2018-09-23T03:57:59.433Z,1002.17
2018-09-23T03:59:10.143Z,1002.22
2018-09-23T04:00:20.226Z,1002.23
2018-09-23T04:01:30.339Z,1002.25
2018-09-23T04:02:40.420Z,1002.22
2018-09-23T04:03:50.554Z,1002.22
2018-09-23T04:05:01.348Z,1002.19
2018-09-23T04:06:11.427Z,1002.2
2018-09-23T04:07:21.253Z,1002.27
2018-09-23T04:08:31.336Z,1002.29
2018-09-23T04:09:41.415Z,1002.19
2018-09-23T04:10:51.488Z,1002.14
2018-09-23T04:12:01.716Z,1002.2
2018-09-23T04:13:12.255Z,1002.22
2018-09-23T04:14:22.338Z,1002.19
2018-09-23T04:15:32.481Z,1002.23
2018-09-23T04:16:42.575Z,1002.28
2018-09-23T04:17:52.670Z,1002.26
2018-09-23T04:19:01.958Z,1002.2
2018-09-23T04:20:12.048Z,1002.19
2018-09-23T04:21:21.855Z,1002.18
2018-09-23T04:22:31.939Z,1002.1
2018-09-23T04:23:42.031Z,1002.01
2018-09-23T04:24:52.136Z,1002.02
2018-09-23T04:26:02.024Z,1001.98
2018-09-23T04:27:12.129Z,1002.04
2018-09-23T04:28:22.210Z,1002.08
2018-09-23T04:29:32.041Z,1002.09
2018-09-23T04:30:42.135Z,1002.1
2018-09-23T04:31:52.228Z,1002.07
2018-09-23T04:33:03.017Z,1002.06
2018-09-23T04:34:13.103Z,1002.03
2018-09-23T04:35:23.195Z,1002
2018-09-23T04:36:32.999Z,1001.94
2018-09-23T04:37:43.078Z,1001.95
2018-09-23T04:38:53.166Z,1001.95
2018-09-23T04:40:03.236Z,1001.87
2018-09-23T04:41:13.332Z,1001.84
2018-09-23T04:42:23.404Z,1001.83
2018-09-23T04:43:33.502Z,1001.85
2018-09-23T04:44:43.715Z,1001.79
2018-09-23T04:45:54.081Z,1001.79
2018-09-23T04:47:04.168Z,1001.74
2018-09-23T04:48:14.232Z,1001.79
2018-09-23T04:49:24.326Z,1001.74
2018-09-23T04:50:34.510Z,1001.71
2018-09-23T04:51:44.586Z,1001.73
2018-09-23T04:52:54.647Z,1001.73
2018-09-23T04:54:04.716Z,1001.71
2018-09-23T04:55:14.547Z,1001.69
2018-09-23T04:56:25.011Z,1001.65
2018-09-23T04:57:35.087Z,1001.7
2018-09-23T04:58:45.157Z,1001.68
2018-09-23T04:59:54.976Z,1001.75
2018-09-23T05:01:06.449Z,1001.78
2018-09-23T05:02:16.545Z,1001.79
2018-09-23T05:03:26.381Z,1001.83
2018-09-23T05:04:36.462Z,1001.83
2018-09-23T05:05:46.553Z,1001.78
2018-09-23T05:06:56.349Z,1001.8
2018-09-23T05:08:06.147Z,1001.82
2018-09-23T05:09:15.969Z,1001.84
2018-09-23T05:10:26.037Z,1001.81
2018-09-23T05:11:36.124Z,1001.82
2018-09-23T05:12:45.680Z,1001.83
2018-09-23T05:13:55.761Z,1001.83
2018-09-23T05:15:05.372Z,1001.81
2018-09-23T05:16:15.436Z,1001.84
2018-09-23T05:17:25.236Z,1001.87
2018-09-23T05:18:35.306Z,1001.86
2018-09-23T05:19:45.435Z,1001.89
2018-09-23T05:20:55.513Z,1001.91
2018-09-23T05:22:05.324Z,1001.91
2018-09-23T05:23:14.922Z,1001.92
2018-09-23T05:24:25.027Z,1001.91
2018-09-23T05:25:35.170Z,1001.95
2018-09-23T05:26:45.257Z,1001.87
2018-09-23T05:27:55.338Z,1001.86
2018-09-23T05:29:05.318Z,1001.87
2018-09-23T05:30:15.412Z,1001.77
2018-09-23T05:31:25.214Z,1001.84
2018-09-23T05:32:35.289Z,1001.78
2018-09-23T05:33:45.360Z,1001.84
2018-09-23T05:34:55.422Z,1001.89
2018-09-23T05:36:06.600Z,1001.86
2018-09-23T05:37:16.672Z,1001.86
2018-09-23T05:38:26.742Z,1001.84
2018-09-23T05:39:36.875Z,1001.89
2018-09-23T05:40:46.445Z,1001.84
2018-09-23T05:41:56.508Z,1001.86
2018-09-23T05:43:06.631Z,1001.84
2018-09-23T05:44:16.191Z,1001.93
2018-09-23T05:45:26.023Z,1001.91
2018-09-23T05:46:36.090Z,1001.93
2018-09-23T05:47:45.923Z,1001.91
2018-09-23T05:48:55.996Z,1001.93
2018-09-23T05:50:06.067Z,1001.91
2018-09-23T05:51:16.142Z,1001.9
2018-09-23T05:52:26.241Z,1001.88
2018-09-23T05:53:36.321Z,1001.85
2018-09-23T05:54:46.140Z,1001.8
2018-09-23T05:55:56.240Z,1001.75
2018-09-23T05:57:06.485Z,1001.75
2018-09-23T05:58:16.574Z,1001.72
2018-09-23T05:59:26.664Z,1001.69
2018-09-23T06:00:36.512Z,1001.66
2018-09-23T06:01:46.590Z,1001.63
2018-09-23T06:02:56.741Z,1001.68
2018-09-23T06:04:07.047Z,1001.67
2018-09-23T06:05:17.141Z,1001.67
2018-09-23T06:06:27.285Z,1001.67
2018-09-23T06:07:37.363Z,1001.67
2018-09-23T06:08:47.507Z,1001.61
2018-09-23T06:09:57.705Z,1001.59
2018-09-23T06:11:08.098Z,1001.5
2018-09-23T06:12:18.553Z,1001.43
2018-09-23T06:13:28.395Z,1001.5
2018-09-23T06:14:38.508Z,1001.47
2018-09-23T06:15:48.595Z,1001.51
2018-09-23T06:16:58.710Z,1001.5
2018-09-23T06:18:08.664Z,1001.53
2018-09-23T06:19:18.994Z,1001.55
2018-09-23T06:20:29.080Z,1001.59
2018-09-23T06:21:38.891Z,1001.56
2018-09-23T06:22:48.964Z,1001.58
2018-09-23T06:23:59.052Z,1001.59
2018-09-23T06:25:08.905Z,1001.61
2018-09-23T06:26:19.171Z,1001.59
2018-09-23T06:27:29.258Z,1001.56
2018-09-23T06:28:39.365Z,1001.59
2018-09-23T06:29:49.228Z,1001.59
2018-09-23T06:30:58.771Z,1001.69
2018-09-23T06:32:08.851Z,1001.63
2018-09-23T06:33:18.949Z,1001.67
2018-09-23T06:34:28.759Z,1001.69
2018-09-23T06:35:38.879Z,1001.65
2018-09-23T06:36:48.706Z,1001.61
2018-09-23T06:37:58.856Z,1001.61
2018-09-23T06:39:08.767Z,1001.59
2018-09-23T06:40:18.317Z,1001.63
2018-09-23T06:41:28.185Z,1001.58
2018-09-23T06:42:38.277Z,1001.55
2018-09-23T06:43:48.359Z,1001.54
2018-09-23T06:44:58.438Z,1001.52
2018-09-23T06:46:08.531Z,1001.58
2018-09-23T06:47:18.621Z,1001.61
2018-09-23T06:48:28.752Z,1001.59
2018-09-23T06:49:38.839Z,1001.62
2018-09-23T06:50:48.928Z,1001.58
2018-09-23T06:51:58.788Z,1001.62
2018-09-23T06:53:08.875Z,1001.63
2018-09-23T06:54:18.696Z,1001.63
2018-09-23T06:55:28.770Z,1001.64
2018-09-23T06:56:38.597Z,1001.53
2018-09-23T06:57:48.802Z,1001.62
2018-09-23T06:58:58.676Z,1001.65
2018-09-23T07:00:08.751Z,1001.66
2018-09-23T07:01:18.828Z,1001.69
2018-09-23T07:02:28.639Z,1001.64
2018-09-23T07:03:38.717Z,1001.63
2018-09-23T07:04:48.840Z,1001.6
2018-09-23T07:05:59.161Z,1001.64
2018-09-23T07:07:09.237Z,1001.68
2018-09-23T07:08:19.330Z,1001.68
2018-09-23T07:09:29.155Z,1001.71
2018-09-23T07:10:39.246Z,1001.7
2018-09-23T07:11:49.080Z,1001.67
2018-09-23T07:12:59.188Z,1001.74
2018-09-23T07:14:09.254Z,1001.73
2018-09-23T07:15:19.129Z,1001.78
2018-09-23T07:16:29.193Z,1001.79
2018-09-23T07:17:39.270Z,1001.82
2018-09-23T07:18:49.366Z,1001.83
2018-09-23T07:19:59.455Z,1001.88
2018-09-23T07:21:09.259Z,1001.9
2018-09-23T07:22:19.341Z,1001.9
2018-09-23T07:23:29.165Z,1001.91
2018-09-23T07:24:39.029Z,1001.91
2018-09-23T07:25:49.375Z,1001.84
2018-09-23T07:26:59.465Z,1001.87
2018-09-23T07:28:09.318Z,1001.86
2018-09-23T07:29:19.412Z,1001.84
2018-09-23T07:30:29.520Z,1001.82
2018-09-23T07:31:39.335Z,1001.84
2018-09-23T07:32:49.421Z,1001.83
2018-09-23T07:33:59.282Z,1001.82
2018-09-23T07:35:09.119Z,1001.79
2018-09-23T07:36:19.217Z,1001.78
2018-09-23T07:37:29.309Z,1001.81
2018-09-23T07:38:39.408Z,1001.78
2018-09-23T07:39:49.637Z,1001.73
2018-09-23T07:40:59.792Z,1001.74
2018-09-23T07:42:09.886Z,1001.77
2018-09-23T07:43:19.721Z,1001.72
2018-09-23T07:44:29.811Z,1001.69
2018-09-23T07:45:39.891Z,1001.72
2018-09-23T07:46:49.984Z,1001.69
2018-09-23T07:48:00.144Z,1001.72
2018-09-23T07:49:10.712Z,1001.68
2018-09-23T07:50:20.813Z,1001.71
2018-09-23T07:51:30.961Z,1001.74
2018-09-23T07:52:41.058Z,1001.76
2018-09-23T07:53:51.154Z,1001.77
2018-09-23T07:55:01.899Z,1001.75
2018-09-23T07:56:12.057Z,1001.81
2018-09-23T07:57:22.284Z,1001.76
2018-09-23T07:58:32.121Z,1001.81
2018-09-23T07:59:41.939Z,1001.76
2018-09-23T08:00:52.041Z,1001.76
2018-09-23T08:02:02.158Z,1001.76
2018-09-23T08:03:12.286Z,1001.81
2018-09-23T08:04:22.443Z,1001.79
2018-09-23T08:05:32.281Z,1001.79
2018-09-23T08:06:42.128Z,1001.77
2018-09-23T08:07:52.277Z,1001.73
2018-09-23T08:09:02.482Z,1001.71
2018-09-23T08:10:12.623Z,1001.64
2018-09-23T08:11:22.727Z,1001.69
2018-09-23T08:12:32.965Z,1001.67
2018-09-23T08:13:44.339Z,1001.7
2018-09-23T08:14:57.009Z,1001.7
2018-09-23T08:16:08.533Z,1001.68
2018-09-23T08:17:18.748Z,1001.66
2018-09-23T08:18:28.588Z,1001.6
2018-09-23T08:19:38.803Z,1001.59
2018-09-23T08:20:50.193Z,1001.59
2018-09-23T08:22:00.596Z,1001.66
2018-09-23T08:23:10.439Z,1001.68
2018-09-23T08:24:20.946Z,1001.6
2018-09-23T08:25:31.124Z,1001.56
2018-09-23T08:26:41.947Z,1001.5
2018-09-23T08:27:52.059Z,1001.55
2018-09-23T08:29:02.807Z,1001.49
2018-09-23T08:30:12.649Z,1001.47
2018-09-23T08:31:22.741Z,1001.4
2018-09-23T08:32:32.884Z,1001.39
2018-09-23T08:33:42.980Z,1001.45
2018-09-23T08:34:53.090Z,1001.38
2018-09-23T08:36:02.969Z,1001.39
2018-09-23T08:37:13.139Z,1001.38
2018-09-23T08:38:23.548Z,1001.42
2018-09-23T08:39:33.706Z,1001.46
2018-09-23T08:40:43.812Z,1001.41
2018-09-23T08:41:53.945Z,1001.36
2018-09-23T08:43:04.063Z,1001.39
2018-09-23T08:44:14.495Z,1001.33
2018-09-23T08:45:24.592Z,1001.35
2018-09-23T08:46:34.689Z,1001.31
2018-09-23T08:47:44.794Z,1001.29
2018-09-23T08:48:54.995Z,1001.28
2018-09-23T08:50:05.158Z,1001.28
2018-09-23T08:51:14.985Z,1001.25
2018-09-23T08:52:25.097Z,1001.19
2018-09-23T08:53:34.943Z,1001.18
2018-09-23T08:54:45.058Z,1001.19
2018-09-23T08:55:55.166Z,1001.22
2018-09-23T08:57:05.257Z,1001.18
2018-09-23T08:58:15.379Z,1001.2
2018-09-23T08:59:25.515Z,1001.23
2018-09-23T09:00:35.338Z,1001.2
2018-09-23T09:01:45.424Z,1001.15
2018-09-23T09:02:55.528Z,1001.16
2018-09-23T09:04:05.636Z,1001.06
2018-09-23T09:05:15.480Z,1001.02
2018-09-23T09:06:25.336Z,1001.02
2018-09-23T09:07:35.503Z,1000.99
2018-09-23T09:08:45.585Z,1000.99
2018-09-23T09:09:55.175Z,1000.98
2018-09-23T09:11:05.275Z,1000.96
2018-09-23T09:12:15.379Z,1000.91
2018-09-23T09:13:25.516Z,1000.91
2018-09-23T09:14:35.614Z,1000.96
2018-09-23T09:15:45.705Z,1001
2018-09-23T09:16:55.783Z,1001.03
2018-09-23T09:18:07.266Z,1001.05
2018-09-23T09:19:17.792Z,1001.06
2018-09-23T09:20:27.882Z,1001.11
2018-09-23T09:21:37.706Z,1001.15
2018-09-23T09:22:47.801Z,1001.08
2018-09-23T09:23:57.630Z,1001.04
2018-09-23T09:25:07.749Z,1000.98
2018-09-23T09:26:17.857Z,1000.89
2018-09-23T09:27:27.953Z,1000.87
2018-09-23T09:28:38.078Z,1000.94
2018-09-23T09:29:48.177Z,1000.85
2018-09-23T09:30:58.314Z,1000.83
2018-09-23T09:32:08.420Z,1000.82
2018-09-23T09:33:18.526Z,1000.76
2018-09-23T09:34:28.595Z,1000.74
2018-09-23T09:35:38.448Z,1000.7
2018-09-23T09:36:48.546Z,1000.67
2018-09-23T09:37:58.642Z,1000.69
2018-09-23T09:39:08.746Z,1000.67
2018-09-23T09:40:18.582Z,1000.63
2018-09-23T09:41:28.427Z,1000.65
2018-09-23T09:42:38.645Z,1000.67
2018-09-23T09:43:48.748Z,1000.71
2018-09-23T09:44:59.147Z,1000.73
2018-09-23T09:46:08.682Z,1000.62
2018-09-23T09:47:18.769Z,1000.55
2018-09-23T09:48:28.357Z,1000.56
2018-09-23T09:49:38.459Z,1000.49
2018-09-23T09:50:48.540Z,1000.51
2018-09-23T09:51:58.644Z,1000.52
2018-09-23T09:53:08.741Z,1000.53
2018-09-23T09:54:18.837Z,1000.47
2018-09-23T09:55:28.947Z,1000.44
2018-09-23T09:56:39.227Z,1000.44
2018-09-23T09:57:49.324Z,1000.45
2018-09-23T09:58:59.431Z,1000.44
2018-09-23T10:00:09.517Z,1000.46
2018-09-23T10:01:19.597Z,1000.48
2018-09-23T10:02:29.666Z,1000.39
2018-09-23T10:03:39.561Z,1000.36
2018-09-23T10:04:49.983Z,1000.34
2018-09-23T10:06:00.160Z,1000.35
2018-09-23T10:07:10.252Z,1000.38
2018-09-23T10:08:20.089Z,1000.33
2018-09-23T10:09:30.199Z,1000.26
2018-09-23T10:10:40.034Z,1000.24
2018-09-23T10:11:49.576Z,1000.26
2018-09-23T10:12:59.675Z,1000.29
2018-09-23T10:14:09.247Z,1000.29
2018-09-23T10:15:19.345Z,1000.25
2018-09-23T10:16:29.446Z,1000.25
2018-09-23T10:17:39.576Z,1000.22
2018-09-23T10:18:49.665Z,1000.16
2018-09-23T10:19:59.749Z,1000.13
2018-09-23T10:21:09.861Z,1000.14
2018-09-23T10:22:19.690Z,1000.2
2018-09-23T10:23:30.244Z,1000.18
2018-09-23T10:24:41.613Z,1000.2
2018-09-23T10:25:51.730Z,1000.23
2018-09-23T10:27:01.823Z,1000.2
2018-09-23T10:28:11.929Z,1000.22
2018-09-23T10:29:22.019Z,1000.2
2018-09-23T10:30:31.579Z,1000.16
2018-09-23T10:31:41.724Z,1000.1
2018-09-23T10:32:52.291Z,1000.04
2018-09-23T10:34:02.390Z,1000.05
2018-09-23T10:35:12.216Z,999.97
2018-09-23T10:36:22.056Z,999.99
2018-09-23T10:37:31.905Z,999.98
2018-09-23T10:38:41.983Z,999.94
2018-09-23T10:39:51.830Z,999.95
2018-09-23T10:41:01.664Z,999.9
2018-09-23T10:42:11.795Z,999.82
2018-09-23T10:43:21.907Z,999.81
2018-09-23T10:44:31.746Z,999.81
2018-09-23T10:45:41.847Z,999.81
2018-09-23T10:46:51.917Z,999.76
2018-09-23T10:48:02.031Z,999.74
2018-09-23T10:49:12.127Z,999.75
2018-09-23T10:50:22.255Z,999.68
2018-09-23T10:51:32.350Z,999.68
2018-09-23T10:52:42.515Z,999.67
2018-09-23T10:53:52.621Z,999.59
2018-09-23T10:55:02.464Z,999.57
2018-09-23T10:56:12.579Z,999.55
2018-09-23T10:57:22.413Z,999.55
2018-09-23T10:58:32.243Z,999.47
2018-09-23T10:59:42.324Z,999.52
2018-09-23T11:00:52.165Z,999.51
2018-09-23T11:02:02.269Z,999.52
2018-09-23T11:03:12.359Z,999.48
2018-09-23T11:04:22.541Z,999.55
2018-09-23T11:05:32.664Z,999.53
2018-09-23T11:06:42.221Z,999.59
2018-09-23T11:07:52.062Z,999.6
2018-09-23T11:09:01.674Z,999.57
2018-09-23T11:10:11.505Z,999.56
2018-09-23T11:11:21.064Z,999.54
2018-09-23T11:12:31.184Z,999.55
2018-09-23T11:13:41.307Z,999.5
2018-09-23T11:14:51.399Z,999.49
2018-09-23T11:16:01.544Z,999.55
2018-09-23T11:17:11.677Z,999.57
2018-09-23T11:18:21.778Z,999.56
2018-09-23T11:19:31.363Z,999.6
2018-09-23T11:20:41.481Z,999.56
2018-09-23T11:21:51.618Z,999.53
2018-09-23T11:23:01.710Z,999.52
2018-09-23T11:24:11.944Z,999.49
2018-09-23T11:25:22.025Z,999.46
2018-09-23T11:26:32.120Z,999.46
2018-09-23T11:27:42.189Z,999.41
2018-09-23T11:28:52.329Z,999.42
2018-09-23T11:30:02.887Z,999.43
2018-09-23T11:31:12.997Z,999.42
2018-09-23T11:32:22.822Z,999.5
2018-09-23T11:33:33.042Z,999.48
2018-09-23T11:34:43.190Z,999.52
2018-09-23T11:35:53.547Z,999.49
2018-09-23T11:37:03.123Z,999.47
2018-09-23T11:38:13.209Z,999.38
2018-09-23T11:39:23.316Z,999.36
2018-09-23T11:40:33.421Z,999.36
2018-09-23T11:41:43.488Z,999.37
2018-09-23T11:42:53.721Z,999.29
2018-09-23T11:44:03.775Z,999.25
2018-09-23T11:45:13.875Z,999.26
2018-09-23T11:46:23.963Z,999.25
2018-09-23T11:47:34.056Z,999.26
2018-09-23T11:48:44.205Z,999.19
2018-09-23T11:49:54.325Z,999.16
2018-09-23T11:51:06.271Z,999.13
2018-09-23T11:52:16.381Z,999.06
2018-09-23T11:53:25.935Z,999
2018-09-23T11:54:35.814Z,998.91
2018-09-23T11:55:45.899Z,998.93
2018-09-23T11:56:55.974Z,998.95
2018-09-23T11:58:06.075Z,998.95
2018-09-23T11:59:16.163Z,999
2018-09-23T12:00:26.068Z,998.98
2018-09-23T12:01:35.626Z,998.96
2018-09-23T12:02:45.870Z,998.94
2018-09-23T12:03:55.975Z,998.92
2018-09-23T12:05:06.538Z,998.92
2018-09-23T12:06:16.655Z,998.88
2018-09-23T12:07:26.762Z,998.84
2018-09-23T12:08:36.876Z,998.8
2018-09-23T12:09:46.979Z,998.71
2018-09-23T12:10:56.907Z,998.63
2018-09-23T12:12:07.413Z,998.59
2018-09-23T12:13:17.583Z,998.55
2018-09-23T12:14:27.689Z,998.59
2018-09-23T12:15:37.956Z,998.58
2018-09-23T12:16:48.629Z,998.61
2018-09-23T12:17:58.519Z,998.6
2018-09-23T12:19:10.565Z,998.54
2018-09-23T12:20:20.666Z,998.53
2018-09-23T12:21:30.779Z,998.48
2018-09-23T12:22:40.620Z,998.44
2018-09-23T12:23:50.442Z,998.43
2018-09-23T12:25:00.324Z,998.38
2018-09-23T12:26:10.444Z,998.32
2018-09-23T12:27:20.013Z,998.35
2018-09-23T12:28:29.875Z,998.34
2018-09-23T12:29:40.099Z,998.3
2018-09-23T12:30:50.316Z,998.32
2018-09-23T12:32:00.450Z,998.24
2018-09-23T12:33:10.577Z,998.17
2018-09-23T12:34:21.110Z,998.12
2018-09-23T12:35:31.257Z,998.19
2018-09-23T12:36:41.373Z,998.21
2018-09-23T12:37:51.462Z,998.18
2018-09-23T12:39:01.761Z,998.14
2018-09-23T12:40:11.840Z,998.12
2018-09-23T12:41:21.994Z,998.04
2018-09-23T12:42:32.095Z,998.03
2018-09-23T12:43:42.199Z,998.08
2018-09-23T12:44:52.303Z,998.05
2018-09-23T12:46:02.440Z,997.99
2018-09-23T12:47:13.196Z,997.86
2018-09-23T12:48:23.294Z,997.75
2018-09-23T12:49:33.396Z,997.74
2018-09-23T12:50:43.279Z,997.76
2018-09-23T12:51:53.385Z,997.79
2018-09-23T12:53:03.324Z,997.76
2018-09-23T12:54:13.412Z,997.71
2018-09-23T12:55:23.514Z,997.69
2018-09-23T12:56:33.592Z,997.66
2018-09-23T12:57:43.695Z,997.63
2018-09-23T12:58:53.826Z,997.62
2018-09-23T13:00:05.964Z,997.56
2018-09-23T13:01:15.801Z,997.47
2018-09-23T13:02:25.885Z,997.48
2018-09-23T13:03:36.385Z,997.47
2018-09-23T13:04:46.489Z,997.48
2018-09-23T13:05:56.575Z,997.44
2018-09-23T13:07:07.639Z,997.48
2018-09-23T13:08:17.756Z,997.49
2018-09-23T13:09:27.873Z,997.47
2018-09-23T13:10:37.973Z,997.46
2018-09-23T13:11:48.060Z,997.39
2018-09-23T13:12:58.250Z,997.36
2018-09-23T13:14:10.918Z,997.31
2018-09-23T13:15:20.778Z,997.34
2018-09-23T13:16:30.865Z,997.26
2018-09-23T13:17:40.964Z,997.23
2018-09-23T13:18:51.244Z,997.17
2018-09-23T13:20:01.342Z,997.16
2018-09-23T13:21:11.445Z,997.12
2018-09-23T13:22:21.541Z,997.1
2018-09-23T13:23:31.646Z,997.06
2018-09-23T13:24:41.796Z,997.08
2018-09-23T13:25:51.904Z,997.06
2018-09-23T13:27:02.045Z,997.03
2018-09-23T13:28:12.148Z,997.02
2018-09-23T13:29:22.248Z,997.01
2018-09-23T13:30:32.112Z,996.91
2018-09-23T13:31:41.974Z,996.89
2018-09-23T13:32:52.081Z,996.87
2018-09-23T13:34:02.170Z,996.85
2018-09-23T13:35:11.740Z,996.81
2018-09-23T13:36:21.876Z,996.76
2018-09-23T13:37:31.705Z,996.75
2018-09-23T13:38:41.804Z,996.71
2018-09-23T13:39:51.926Z,996.69
2018-09-23T13:41:02.036Z,996.67
2018-09-23T13:42:12.326Z,996.63
2018-09-23T13:43:22.446Z,996.6
2018-09-23T13:44:32.587Z,996.55
2018-09-23T13:45:42.711Z,996.51
2018-09-23T13:46:52.789Z,996.46
2018-09-23T13:48:02.888Z,996.42
2018-09-23T13:49:12.717Z,996.42
2018-09-23T13:50:22.543Z,996.36
2018-09-23T13:51:32.377Z,996.32
2018-09-23T13:52:42.487Z,996.4
2018-09-23T13:53:52.602Z,996.36
2018-09-23T13:55:02.700Z,996.31
2018-09-23T13:56:12.809Z,996.32
2018-09-23T13:57:22.919Z,996.28
2018-09-23T13:58:33.021Z,996.23
2018-09-23T13:59:43.163Z,996.19
2018-09-23T14:00:53.273Z,996.22
2018-09-23T14:02:03.371Z,996.22
2018-09-23T14:03:13.470Z,996.2
2018-09-23T14:04:23.605Z,996.13
2018-09-23T14:05:33.825Z,996.11
2018-09-23T14:06:43.922Z,996.11
2018-09-23T14:07:53.754Z,996.05
2018-09-23T14:09:03.892Z,995.92
2018-09-23T14:10:14.006Z,995.89
2018-09-23T14:11:24.243Z,995.88
2018-09-23T14:12:34.343Z,995.9
2018-09-23T14:13:44.484Z,995.91
2018-09-23T14:14:54.304Z,995.83
2018-09-23T14:16:04.151Z,995.94
2018-09-23T14:17:14.264Z,995.88
2018-09-23T14:18:24.355Z,995.82
2018-09-23T14:19:34.179Z,995.8
2018-09-23T14:20:44.256Z,995.72
2018-09-23T14:21:54.359Z,995.67
2018-09-23T14:23:04.549Z,995.64
2018-09-23T14:24:14.391Z,995.62
2018-09-23T14:25:24.505Z,995.54
2018-09-23T14:26:34.618Z,995.57
2018-09-23T14:27:44.505Z,995.54
2018-09-23T14:28:54.617Z,995.47
2018-09-23T14:30:04.739Z,995.41
2018-09-23T14:31:14.844Z,995.32
2018-09-23T14:32:24.953Z,995.38
2018-09-23T14:33:35.069Z,995.33
2018-09-23T14:34:45.283Z,995.29
2018-09-23T14:35:55.388Z,995.35
2018-09-23T14:37:06.592Z,995.31
2018-09-23T14:38:16.741Z,995.27
2018-09-23T14:39:26.586Z,995.26
2018-09-23T14:40:36.701Z,995.24
2018-09-23T14:41:46.587Z,995.15
2018-09-23T14:42:56.770Z,995.18
2018-09-23T14:44:06.873Z,995.17
2018-09-23T14:45:16.968Z,995.06
2018-09-23T14:46:27.130Z,994.97
2018-09-23T14:47:37.275Z,994.93
2018-09-23T14:48:47.382Z,994.89